sensor_id;sensor_type;location;lat;lon;timestamp;pressure;altitude;pressure_sealevel;temperature;humidity
3544;BME280;1786;52.870;9.578;2024-01-25T00:02:05;101170.03;;;12.38;62.85
3544;BME280;1786;52.870;9.578;2024-01-25T00:04:32;101162.06;;;12.38;62.30
3544;BME280;1786;52.870;9.578;2024-01-25T00:07:00;101176.63;;;12.88;61.44
3544;BME280;1786;52.870;9.578;2024-01-25T00:09:27;101158.44;;;12.24;63.40
3544;BME280;1786;52.870;9.578;2024-01-25T00:11:53;101161.97;;;12.39;63.24
3544;BME280;1786;52.870;9.578;2024-01-25T00:14:20;101159.13;;;12.28;63.09
3544;BME280;1786;52.870;9.578;2024-01-25T00:16:47;101161.59;;;12.45;62.98
3544;BME280;1786;52.870;9.578;2024-01-25T00:19:14;101168.19;;;12.24;63.25
3544;BME280;1786;52.870;9.578;2024-01-25T00:21:42;101168.22;;;12.38;62.86
3544;BME280;1786;52.870;9.578;2024-01-25T00:24:13;101180.13;;;12.74;62.19
3544;BME280;1786;52.870;9.578;2024-01-25T00:26:40;101193.59;;;13.12;61.17
3544;BME280;1786;52.870;9.578;2024-01-25T00:29:07;101187.50;;;12.83;61.97
3544;BME280;1786;52.870;9.578;2024-01-25T00:31:34;101190.44;;;12.93;61.65
3544;BME280;1786;52.870;9.578;2024-01-25T00:34:01;101199.78;;;12.98;61.63
3544;BME280;1786;52.870;9.578;2024-01-25T00:36:29;101201.34;;;12.45;62.70
3544;BME280;1786;52.870;9.578;2024-01-25T00:38:56;101194.81;;;12.65;62.72
3544;BME280;1786;52.870;9.578;2024-01-25T00:41:23;101189.03;;;12.59;62.95
3544;BME280;1786;52.870;9.578;2024-01-25T00:43:50;101199.25;;;12.65;62.68
3544;BME280;1786;52.870;9.578;2024-01-25T00:46:18;101206.28;;;12.66;62.79
3544;BME280;1786;52.870;9.578;2024-01-25T00:48:45;101214.97;;;12.82;62.14
3544;BME280;1786;52.870;9.578;2024-01-25T00:51:21;101209.09;;;12.91;61.91
3544;BME280;1786;52.870;9.578;2024-01-25T00:53:49;101215.78;;;12.97;62.19
3544;BME280;1786;52.870;9.578;2024-01-25T00:56:16;101227.06;;;13.29;61.28
3544;BME280;1786;52.870;9.578;2024-01-25T00:58:43;101223.75;;;13.11;61.46
3544;BME280;1786;52.870;9.578;2024-01-25T01:01:10;101228.75;;;13.16;61.37
3544;BME280;1786;52.870;9.578;2024-01-25T01:03:38;101220.09;;;12.85;62.13
3544;BME280;1786;52.870;9.578;2024-01-25T01:06:05;101211.31;;;13.12;61.48
3544;BME280;1786;52.870;9.578;2024-01-25T01:08:32;101197.16;;;12.70;62.48
3544;BME280;1786;52.870;9.578;2024-01-25T01:10:59;101205.69;;;12.89;61.97
3544;BME280;1786;52.870;9.578;2024-01-25T01:13:26;101213.03;;;13.27;61.43
3544;BME280;1786;52.870;9.578;2024-01-25T01:15:53;101203.97;;;12.88;62.01
3544;BME280;1786;52.870;9.578;2024-01-25T01:18:20;101203.50;;;12.82;62.24
3544;BME280;1786;52.870;9.578;2024-01-25T01:20:47;101200.56;;;12.72;62.60
3544;BME280;1786;52.870;9.578;2024-01-25T01:23:15;101189.97;;;12.72;62.26
3544;BME280;1786;52.870;9.578;2024-01-25T01:25:42;101195.81;;;12.91;62.18
3544;BME280;1786;52.870;9.578;2024-01-25T01:28:09;101203.50;;;12.96;61.87
3544;BME280;1786;52.870;9.578;2024-01-25T01:30:36;101196.22;;;12.56;62.72
3544;BME280;1786;52.870;9.578;2024-01-25T01:33:03;101196.50;;;12.66;62.71
3544;BME280;1786;52.870;9.578;2024-01-25T01:35:30;101214.03;;;12.83;61.81
3544;BME280;1786;52.870;9.578;2024-01-25T01:37:57;101221.03;;;12.84;62.02
3544;BME280;1786;52.870;9.578;2024-01-25T01:40:24;101220.25;;;13.11;61.18
3544;BME280;1786;52.870;9.578;2024-01-25T01:42:51;101222.91;;;12.96;61.29
3544;BME280;1786;52.870;9.578;2024-01-25T01:45:18;101227.69;;;12.63;62.48
3544;BME280;1786;52.870;9.578;2024-01-25T01:47:45;101236.84;;;12.43;63.33
3544;BME280;1786;52.870;9.578;2024-01-25T01:50:12;101228.97;;;12.84;62.55
3544;BME280;1786;52.870;9.578;2024-01-25T01:52:40;101232.59;;;12.69;62.50
3544;BME280;1786;52.870;9.578;2024-01-25T01:55:07;101221.97;;;12.69;62.49
3544;BME280;1786;52.870;9.578;2024-01-25T01:57:36;101229.75;;;12.58;62.80
3544;BME280;1786;52.870;9.578;2024-01-25T02:00:06;101227.47;;;12.94;61.78
3544;BME280;1786;52.870;9.578;2024-01-25T02:02:38;101220.47;;;12.79;62.68
3544;BME280;1786;52.870;9.578;2024-01-25T02:05:05;101213.75;;;12.59;62.57
3544;BME280;1786;52.870;9.578;2024-01-25T02:07:32;101221.50;;;12.33;63.36
3544;BME280;1786;52.870;9.578;2024-01-25T02:09:59;101210.69;;;12.37;63.31
3544;BME280;1786;52.870;9.578;2024-01-25T02:12:26;101210.81;;;12.49;63.06
3544;BME280;1786;52.870;9.578;2024-01-25T02:14:53;101210.06;;;12.76;62.36
3544;BME280;1786;52.870;9.578;2024-01-25T02:17:19;101218.41;;;12.55;62.91
3544;BME280;1786;52.870;9.578;2024-01-25T02:19:46;101228.00;;;12.13;63.86
3544;BME280;1786;52.870;9.578;2024-01-25T02:22:18;101239.97;;;12.49;63.03
3544;BME280;1786;52.870;9.578;2024-01-25T02:24:45;101246.50;;;12.58;63.42
3544;BME280;1786;52.870;9.578;2024-01-25T02:27:12;101246.81;;;12.68;62.99
3544;BME280;1786;52.870;9.578;2024-01-25T02:29:39;101253.59;;;12.72;62.92
3544;BME280;1786;52.870;9.578;2024-01-25T02:32:06;101238.47;;;12.45;63.45
3544;BME280;1786;52.870;9.578;2024-01-25T02:34:33;101247.16;;;12.62;63.50
3544;BME280;1786;52.870;9.578;2024-01-25T02:37:00;101260.31;;;12.92;62.36
3544;BME280;1786;52.870;9.578;2024-01-25T02:39:27;101245.19;;;12.51;63.55
3544;BME280;1786;52.870;9.578;2024-01-25T02:41:54;101268.00;;;12.96;62.57
3544;BME280;1786;52.870;9.578;2024-01-25T02:44:21;101275.03;;;12.83;62.88
3544;BME280;1786;52.870;9.578;2024-01-25T02:46:47;101274.63;;;13.04;62.05
3544;BME280;1786;52.870;9.578;2024-01-25T02:49:14;101274.63;;;13.04;61.80
3544;BME280;1786;52.870;9.578;2024-01-25T02:51:41;101275.84;;;13.12;62.21
3544;BME280;1786;52.870;9.578;2024-01-25T02:54:08;101288.47;;;13.09;62.01
3544;BME280;1786;52.870;9.578;2024-01-25T02:56:35;101274.63;;;12.61;62.80
3544;BME280;1786;52.870;9.578;2024-01-25T02:59:02;101273.69;;;12.47;63.50
3544;BME280;1786;52.870;9.578;2024-01-25T03:01:37;101262.16;;;12.63;63.00
3544;BME280;1786;52.870;9.578;2024-01-25T03:04:04;101269.69;;;12.40;63.72
3544;BME280;1786;52.870;9.578;2024-01-25T03:06:31;101274.25;;;12.52;63.17
3544;BME280;1786;52.870;9.578;2024-01-25T03:08:59;101263.03;;;12.33;63.75
3544;BME280;1786;52.870;9.578;2024-01-25T03:11:25;101267.88;;;12.41;63.70
3544;BME280;1786;52.870;9.578;2024-01-25T03:13:52;101279.34;;;12.41;63.90
3544;BME280;1786;52.870;9.578;2024-01-25T03:16:19;101286.38;;;12.71;63.35
3544;BME280;1786;52.870;9.578;2024-01-25T03:18:46;101279.53;;;12.38;63.57
3544;BME280;1786;52.870;9.578;2024-01-25T03:21:13;101294.13;;;12.45;63.56
3544;BME280;1786;52.870;9.578;2024-01-25T03:23:40;101295.47;;;12.67;63.26
3544;BME280;1786;52.870;9.578;2024-01-25T03:26:07;101293.50;;;12.70;62.76
3544;BME280;1786;52.870;9.578;2024-01-25T03:28:34;101291.31;;;12.63;62.83
3544;BME280;1786;52.870;9.578;2024-01-25T03:31:02;101295.19;;;12.27;63.90
3544;BME280;1786;52.870;9.578;2024-01-25T03:33:30;101298.78;;;12.85;63.12
3544;BME280;1786;52.870;9.578;2024-01-25T03:36:05;101297.16;;;12.53;63.34
3544;BME280;1786;52.870;9.578;2024-01-25T03:38:32;101289.69;;;12.16;64.00
3544;BME280;1786;52.870;9.578;2024-01-25T03:40:59;101294.78;;;12.19;64.26
3544;BME280;1786;52.870;9.578;2024-01-25T03:43:26;101311.13;;;12.11;64.31
3544;BME280;1786;52.870;9.578;2024-01-25T03:46:01;101306.53;;;12.15;64.38
3544;BME280;1786;52.870;9.578;2024-01-25T03:48:30;101309.19;;;11.99;65.03
3544;BME280;1786;52.870;9.578;2024-01-25T03:50:57;101311.41;;;12.06;64.65
3544;BME280;1786;52.870;9.578;2024-01-25T03:53:24;101307.63;;;12.41;64.49
3544;BME280;1786;52.870;9.578;2024-01-25T03:55:50;101312.50;;;12.63;63.13
3544;BME280;1786;52.870;9.578;2024-01-25T03:58:17;101308.94;;;12.03;64.93
3544;BME280;1786;52.870;9.578;2024-01-25T04:00:47;101313.06;;;12.53;63.58
3544;BME280;1786;52.870;9.578;2024-01-25T04:03:14;101317.88;;;12.17;64.18
3544;BME280;1786;52.870;9.578;2024-01-25T04:05:42;101322.94;;;12.05;64.73
3544;BME280;1786;52.870;9.578;2024-01-25T04:08:09;101316.88;;;12.33;64.28
3544;BME280;1786;52.870;9.578;2024-01-25T04:10:36;101321.19;;;12.50;63.91
3544;BME280;1786;52.870;9.578;2024-01-25T04:13:03;101323.75;;;12.22;64.05
3544;BME280;1786;52.870;9.578;2024-01-25T04:15:31;101339.03;;;12.02;65.00
3544;BME280;1786;52.870;9.578;2024-01-25T04:17:58;101345.75;;;12.08;64.69
3544;BME280;1786;52.870;9.578;2024-01-25T04:20:25;101353.63;;;12.40;64.37
3544;BME280;1786;52.870;9.578;2024-01-25T04:22:52;101354.03;;;13.07;62.83
3544;BME280;1786;52.870;9.578;2024-01-25T04:25:19;101347.25;;;12.58;63.23
3544;BME280;1786;52.870;9.578;2024-01-25T04:27:46;101359.56;;;12.29;64.34
3544;BME280;1786;52.870;9.578;2024-01-25T04:30:13;101356.19;;;12.41;63.91
3544;BME280;1786;52.870;9.578;2024-01-25T04:32:40;101357.34;;;12.51;63.68
3544;BME280;1786;52.870;9.578;2024-01-25T04:35:08;101353.00;;;12.20;64.23
3544;BME280;1786;52.870;9.578;2024-01-25T04:37:35;101361.34;;;12.59;63.88
3544;BME280;1786;52.870;9.578;2024-01-25T04:40:03;101360.66;;;12.41;64.11
3544;BME280;1786;52.870;9.578;2024-01-25T04:42:31;101364.41;;;12.37;64.50
3544;BME280;1786;52.870;9.578;2024-01-25T04:44:58;101364.41;;;12.37;63.97
3544;BME280;1786;52.870;9.578;2024-01-25T04:47:25;101371.63;;;12.79;63.17
3544;BME280;1786;52.870;9.578;2024-01-25T04:49:52;101371.63;;;12.79;63.05
3544;BME280;1786;52.870;9.578;2024-01-25T04:52:19;101363.19;;;12.42;63.55
3544;BME280;1786;52.870;9.578;2024-01-25T04:54:46;101380.53;;;12.18;64.50
3544;BME280;1786;52.870;9.578;2024-01-25T04:57:13;101382.63;;;12.57;64.08
3544;BME280;1786;52.870;9.578;2024-01-25T04:59:39;101388.38;;;12.19;64.80
3544;BME280;1786;52.870;9.578;2024-01-25T05:02:06;101393.81;;;12.32;64.31
3544;BME280;1786;52.870;9.578;2024-01-25T05:04:33;101404.09;;;12.38;64.39
3544;BME280;1786;52.870;9.578;2024-01-25T05:07:02;101397.63;;;12.42;63.98
3544;BME280;1786;52.870;9.578;2024-01-25T05:09:28;101403.84;;;12.57;63.48
3544;BME280;1786;52.870;9.578;2024-01-25T05:11:55;101417.63;;;12.18;64.50
3544;BME280;1786;52.870;9.578;2024-01-25T05:14:25;101411.44;;;12.93;63.37
3544;BME280;1786;52.870;9.578;2024-01-25T05:16:52;101412.50;;;13.19;62.36
3544;BME280;1786;52.870;9.578;2024-01-25T05:19:18;101416.72;;;13.38;61.76
3544;BME280;1786;52.870;9.578;2024-01-25T05:21:45;101419.69;;;13.17;62.32
3544;BME280;1786;52.870;9.578;2024-01-25T05:24:13;101421.56;;;13.46;61.52
3544;BME280;1786;52.870;9.578;2024-01-25T05:26:39;101420.03;;;13.27;61.51
3544;BME280;1786;52.870;9.578;2024-01-25T05:29:06;101413.19;;;13.23;62.21
3544;BME280;1786;52.870;9.578;2024-01-25T05:31:33;101421.72;;;13.42;61.49
3544;BME280;1786;52.870;9.578;2024-01-25T05:34:01;101427.16;;;13.27;61.41
3544;BME280;1786;52.870;9.578;2024-01-25T05:36:28;101418.66;;;13.06;62.06
3544;BME280;1786;52.870;9.578;2024-01-25T05:38:54;101434.31;;;13.10;61.92
3544;BME280;1786;52.870;9.578;2024-01-25T05:41:21;101431.41;;;13.29;61.74
3544;BME280;1786;52.870;9.578;2024-01-25T05:43:48;101436.16;;;13.38;61.09
3544;BME280;1786;52.870;9.578;2024-01-25T05:46:15;101450.53;;;12.90;62.88
3544;BME280;1786;52.870;9.578;2024-01-25T05:48:41;101439.69;;;13.09;61.93
3544;BME280;1786;52.870;9.578;2024-01-25T05:51:08;101441.84;;;12.58;63.58
3544;BME280;1786;52.870;9.578;2024-01-25T05:53:35;101442.72;;;12.72;63.26
3544;BME280;1786;52.870;9.578;2024-01-25T05:56:02;101450.81;;;13.15;62.02
3544;BME280;1786;52.870;9.578;2024-01-25T05:58:30;101458.25;;;13.39;61.57
3544;BME280;1786;52.870;9.578;2024-01-25T06:00:58;101466.72;;;13.15;62.30
3544;BME280;1786;52.870;9.578;2024-01-25T06:03:25;101468.75;;;13.40;61.64
3544;BME280;1786;52.870;9.578;2024-01-25T06:05:52;101473.31;;;13.67;61.10
3544;BME280;1786;52.870;9.578;2024-01-25T06:08:19;101473.91;;;13.87;60.61
3544;BME280;1786;52.870;9.578;2024-01-25T06:10:46;101472.28;;;13.55;61.19
3544;BME280;1786;52.870;9.578;2024-01-25T06:13:13;101476.84;;;13.39;61.13
3544;BME280;1786;52.870;9.578;2024-01-25T06:15:40;101470.09;;;13.76;60.39
3544;BME280;1786;52.870;9.578;2024-01-25T06:18:07;101465.47;;;13.07;61.82
3544;BME280;1786;52.870;9.578;2024-01-25T06:20:34;101472.56;;;13.06;62.41
3544;BME280;1786;52.870;9.578;2024-01-25T06:23:01;101469.44;;;13.44;61.40
3544;BME280;1786;52.870;9.578;2024-01-25T06:25:28;101476.28;;;13.48;61.38
3544;BME280;1786;52.870;9.578;2024-01-25T06:27:57;101480.25;;;13.11;61.98
3544;BME280;1786;52.870;9.578;2024-01-25T06:30:25;101484.69;;;12.96;62.38
3544;BME280;1786;52.870;9.578;2024-01-25T06:32:52;101480.72;;;13.33;61.31
3544;BME280;1786;52.870;9.578;2024-01-25T06:35:19;101495.41;;;13.09;62.08
3544;BME280;1786;52.870;9.578;2024-01-25T06:37:46;101502.41;;;13.10;62.37
3544;BME280;1786;52.870;9.578;2024-01-25T06:40:13;101506.38;;;13.03;62.50
3544;BME280;1786;52.870;9.578;2024-01-25T06:42:40;101506.03;;;13.09;62.56
3544;BME280;1786;52.870;9.578;2024-01-25T06:45:07;101513.72;;;13.13;62.15
3544;BME280;1786;52.870;9.578;2024-01-25T06:47:33;101506.22;;;13.20;61.79
3544;BME280;1786;52.870;9.578;2024-01-25T06:50:00;101507.16;;;12.59;63.62
3544;BME280;1786;52.870;9.578;2024-01-25T06:52:27;101510.63;;;13.21;61.80
3544;BME280;1786;52.870;9.578;2024-01-25T06:54:56;101527.53;;;13.34;61.69
3544;BME280;1786;52.870;9.578;2024-01-25T06:57:22;101529.84;;;13.25;62.00
3544;BME280;1786;52.870;9.578;2024-01-25T06:59:49;101538.97;;;13.20;62.19
3544;BME280;1786;52.870;9.578;2024-01-25T07:02:18;101540.22;;;13.29;61.72
3544;BME280;1786;52.870;9.578;2024-01-25T07:04:45;101546.91;;;13.20;62.25
3544;BME280;1786;52.870;9.578;2024-01-25T07:07:12;101549.38;;;12.93;62.62
3544;BME280;1786;52.870;9.578;2024-01-25T07:09:39;101544.16;;;12.92;62.69
3544;BME280;1786;52.870;9.578;2024-01-25T07:12:06;101546.09;;;13.04;62.45
3544;BME280;1786;52.870;9.578;2024-01-25T07:14:33;101542.84;;;13.59;61.10
3544;BME280;1786;52.870;9.578;2024-01-25T07:17:00;101549.00;;;13.60;61.04
3544;BME280;1786;52.870;9.578;2024-01-25T07:19:27;101546.66;;;13.84;60.40
3544;BME280;1786;52.870;9.578;2024-01-25T07:21:54;101543.72;;;13.74;60.33
3544;BME280;1786;52.870;9.578;2024-01-25T07:24:21;101546.81;;;13.52;61.70
3544;BME280;1786;52.870;9.578;2024-01-25T07:26:48;101554.03;;;13.64;61.03
3544;BME280;1786;52.870;9.578;2024-01-25T07:29:14;101566.50;;;14.21;59.50
3544;BME280;1786;52.870;9.578;2024-01-25T07:31:41;101564.41;;;13.98;60.18
3544;BME280;1786;52.870;9.578;2024-01-25T07:34:08;101561.09;;;14.09;59.68
3544;BME280;1786;52.870;9.578;2024-01-25T07:36:35;101569.91;;;13.66;60.35
3544;BME280;1786;52.870;9.578;2024-01-25T07:39:02;101567.16;;;13.82;60.34
3544;BME280;1786;52.870;9.578;2024-01-25T07:41:29;101586.75;;;13.51;61.12
3544;BME280;1786;52.870;9.578;2024-01-25T07:43:56;101578.94;;;14.06;60.55
3544;BME280;1786;52.870;9.578;2024-01-25T07:46:23;101585.53;;;13.56;60.75
3544;BME280;1786;52.870;9.578;2024-01-25T07:48:52;101590.13;;;13.97;60.29
3544;BME280;1786;52.870;9.578;2024-01-25T07:51:19;101587.53;;;13.96;60.43
3544;BME280;1786;52.870;9.578;2024-01-25T07:53:46;101591.75;;;14.14;59.71
3544;BME280;1786;52.870;9.578;2024-01-25T07:56:13;101588.41;;;14.39;59.32
3544;BME280;1786;52.870;9.578;2024-01-25T07:58:40;101578.66;;;13.97;59.77
3544;BME280;1786;52.870;9.578;2024-01-25T08:01:07;101577.69;;;13.83;60.44
3544;BME280;1786;52.870;9.578;2024-01-25T08:03:34;101582.22;;;13.67;60.69
3544;BME280;1786;52.870;9.578;2024-01-25T08:06:02;101588.44;;;13.52;61.37
3544;BME280;1786;52.870;9.578;2024-01-25T08:08:30;101595.47;;;13.53;61.17
3544;BME280;1786;52.870;9.578;2024-01-25T08:10:56;101599.22;;;13.34;61.80
3544;BME280;1786;52.870;9.578;2024-01-25T08:13:23;101595.22;;;13.11;62.28
3544;BME280;1786;52.870;9.578;2024-01-25T08:15:51;101591.16;;;13.36;62.10
3544;BME280;1786;52.870;9.578;2024-01-25T08:18:18;101602.72;;;13.79;60.66
3544;BME280;1786;52.870;9.578;2024-01-25T08:20:46;101597.31;;;13.67;61.19
3544;BME280;1786;52.870;9.578;2024-01-25T08:23:13;101599.97;;;13.95;60.53
3544;BME280;1786;52.870;9.578;2024-01-25T08:25:41;101598.06;;;13.83;60.62
3544;BME280;1786;52.870;9.578;2024-01-25T08:28:08;101592.81;;;13.53;61.40
3544;BME280;1786;52.870;9.578;2024-01-25T08:30:35;101604.19;;;13.55;61.47
3544;BME280;1786;52.870;9.578;2024-01-25T08:33:03;101597.13;;;13.39;61.31
3544;BME280;1786;52.870;9.578;2024-01-25T08:35:30;101604.13;;;13.71;60.93
3544;BME280;1786;52.870;9.578;2024-01-25T08:37:57;101604.97;;;13.57;61.42
3544;BME280;1786;52.870;9.578;2024-01-25T08:40:24;101612.84;;;13.28;62.36
3544;BME280;1786;52.870;9.578;2024-01-25T08:42:55;101612.22;;;13.83;60.72
3544;BME280;1786;52.870;9.578;2024-01-25T08:45:41;101603.41;;;13.38;62.01
3544;BME280;1786;52.870;9.578;2024-01-25T08:48:09;101609.31;;;13.28;62.39
3544;BME280;1786;52.870;9.578;2024-01-25T08:50:36;101612.16;;;13.55;61.67
3544;BME280;1786;52.870;9.578;2024-01-25T08:53:04;101607.03;;;13.52;61.76
3544;BME280;1786;52.870;9.578;2024-01-25T08:55:32;101612.81;;;13.89;61.23
3544;BME280;1786;52.870;9.578;2024-01-25T08:58:00;101618.91;;;13.60;61.22
3544;BME280;1786;52.870;9.578;2024-01-25T09:00:27;101618.16;;;13.28;61.76
3544;BME280;1786;52.870;9.578;2024-01-25T09:02:55;101620.31;;;13.52;61.32
3544;BME280;1786;52.870;9.578;2024-01-25T09:05:22;101631.19;;;13.77;61.11
3544;BME280;1786;52.870;9.578;2024-01-25T09:07:49;101626.09;;;14.32;60.06
3544;BME280;1786;52.870;9.578;2024-01-25T09:10:17;101626.03;;;14.19;60.30
3544;BME280;1786;52.870;9.578;2024-01-25T09:12:45;101637.13;;;13.67;61.52
3544;BME280;1786;52.870;9.578;2024-01-25T09:15:12;101623.00;;;13.66;61.01
3544;BME280;1786;52.870;9.578;2024-01-25T09:17:39;101631.78;;;13.52;62.12
3544;BME280;1786;52.870;9.578;2024-01-25T09:20:07;101629.13;;;13.97;61.29
3544;BME280;1786;52.870;9.578;2024-01-25T09:22:36;101631.72;;;13.38;62.03
3544;BME280;1786;52.870;9.578;2024-01-25T09:25:04;101648.22;;;13.73;61.57
3544;BME280;1786;52.870;9.578;2024-01-25T09:27:34;101655.66;;;13.82;60.92
3544;BME280;1786;52.870;9.578;2024-01-25T09:30:01;101659.63;;;13.75;60.81
3544;BME280;1786;52.870;9.578;2024-01-25T09:32:28;101662.13;;;13.48;61.42
3544;BME280;1786;52.870;9.578;2024-01-25T09:34:55;101670.13;;;13.62;61.80
3544;BME280;1786;52.870;9.578;2024-01-25T09:37:22;101665.91;;;13.44;61.98
3544;BME280;1786;52.870;9.578;2024-01-25T09:39:51;101666.66;;;13.76;61.13
3544;BME280;1786;52.870;9.578;2024-01-25T09:42:18;101681.53;;;14.09;60.09
3544;BME280;1786;52.870;9.578;2024-01-25T09:44:45;101684.22;;;14.52;59.86
3544;BME280;1786;52.870;9.578;2024-01-25T09:47:12;101686.22;;;14.34;59.82
3544;BME280;1786;52.870;9.578;2024-01-25T09:49:41;101687.03;;;14.20;60.07
3544;BME280;1786;52.870;9.578;2024-01-25T09:52:12;101686.50;;;14.44;59.78
3544;BME280;1786;52.870;9.578;2024-01-25T09:54:40;101695.03;;;14.35;59.65
3544;BME280;1786;52.870;9.578;2024-01-25T09:57:14;101687.16;;;14.47;59.46
3544;BME280;1786;52.870;9.578;2024-01-25T09:59:45;101695.00;;;14.20;59.88
3544;BME280;1786;52.870;9.578;2024-01-25T10:02:12;101685.59;;;14.00;60.71
3544;BME280;1786;52.870;9.578;2024-01-25T10:04:39;101696.19;;;14.45;59.77
3544;BME280;1786;52.870;9.578;2024-01-25T10:07:06;101688.28;;;14.43;59.40
3544;BME280;1786;52.870;9.578;2024-01-25T10:09:41;101688.88;;;14.63;58.89
3544;BME280;1786;52.870;9.578;2024-01-25T10:12:09;101693.13;;;14.51;59.17
3544;BME280;1786;52.870;9.578;2024-01-25T10:14:45;101695.13;;;14.19;59.51
3544;BME280;1786;52.870;9.578;2024-01-25T10:17:11;101690.78;;;14.61;59.11
3544;BME280;1786;52.870;9.578;2024-01-25T10:19:43;101710.03;;;14.21;59.75
3544;BME280;1786;52.870;9.578;2024-01-25T10:22:11;101705.47;;;14.38;59.30
3544;BME280;1786;52.870;9.578;2024-01-25T10:24:40;101696.38;;;14.56;59.33
3544;BME280;1786;52.870;9.578;2024-01-25T10:27:08;101703.38;;;14.14;59.47
3544;BME280;1786;52.870;9.578;2024-01-25T10:29:35;101702.97;;;14.06;60.11
3544;BME280;1786;52.870;9.578;2024-01-25T10:32:06;101694.16;;;14.91;58.27
3544;BME280;1786;52.870;9.578;2024-01-25T10:34:38;101695.72;;;15.23;57.48
3544;BME280;1786;52.870;9.578;2024-01-25T10:37:06;101690.22;;;14.70;58.21
3544;BME280;1786;52.870;9.578;2024-01-25T10:39:34;101693.94;;;14.67;58.42
3544;BME280;1786;52.870;9.578;2024-01-25T10:42:01;101684.78;;;14.86;57.83
3544;BME280;1786;52.870;9.578;2024-01-25T10:44:28;101690.84;;;14.45;58.68
3544;BME280;1786;52.870;9.578;2024-01-25T10:46:55;101687.34;;;14.87;58.10
3544;BME280;1786;52.870;9.578;2024-01-25T10:49:22;101679.94;;;14.78;57.73
3544;BME280;1786;52.870;9.578;2024-01-25T10:51:51;101686.50;;;14.73;57.74
3544;BME280;1786;52.870;9.578;2024-01-25T10:54:19;101690.78;;;14.89;57.50
3544;BME280;1786;52.870;9.578;2024-01-25T10:56:46;101690.28;;;14.97;57.33
3544;BME280;1786;52.870;9.578;2024-01-25T10:59:16;101696.50;;;15.10;57.29
3544;BME280;1786;52.870;9.578;2024-01-25T11:01:46;101697.16;;;15.68;55.93
3544;BME280;1786;52.870;9.578;2024-01-25T11:04:16;101683.59;;;15.58;56.33
3544;BME280;1786;52.870;9.578;2024-01-25T11:06:45;101700.03;;;15.65;56.02
3544;BME280;1786;52.870;9.578;2024-01-25T11:09:19;101694.44;;;15.55;55.79
3544;BME280;1786;52.870;9.578;2024-01-25T11:11:48;101698.59;;;15.20;56.30
3544;BME280;1786;52.870;9.578;2024-01-25T11:14:16;101705.41;;;14.82;57.22
3544;BME280;1786;52.870;9.578;2024-01-25T11:16:43;101706.41;;;14.22;58.69
3544;BME280;1786;52.870;9.578;2024-01-25T11:19:21;101697.22;;;14.71;58.10
3544;BME280;1786;52.870;9.578;2024-01-25T11:21:50;101707.94;;;14.26;58.83
3544;BME280;1786;52.870;9.578;2024-01-25T11:24:22;101702.59;;;14.12;58.83
3544;BME280;1786;52.870;9.578;2024-01-25T11:26:50;101706.72;;;14.32;58.72
3544;BME280;1786;52.870;9.578;2024-01-25T11:29:18;101704.00;;;14.77;57.79
3544;BME280;1786;52.870;9.578;2024-01-25T11:31:49;101694.16;;;14.20;59.33
3544;BME280;1786;52.870;9.578;2024-01-25T11:34:17;101692.03;;;14.55;58.44
3544;BME280;1786;52.870;9.578;2024-01-25T11:36:49;101691.09;;;15.12;57.22
3544;BME280;1786;52.870;9.578;2024-01-25T11:39:16;101690.84;;;15.02;57.50
3544;BME280;1786;52.870;9.578;2024-01-25T11:41:44;101691.63;;;14.90;57.00
3544;BME280;1786;52.870;9.578;2024-01-25T11:44:12;101676.50;;;14.76;58.02
3544;BME280;1786;52.870;9.578;2024-01-25T11:46:40;101685.44;;;14.89;58.04
3544;BME280;1786;52.870;9.578;2024-01-25T11:49:07;101672.50;;;14.98;57.31
3544;BME280;1786;52.870;9.578;2024-01-25T11:51:34;101682.28;;;15.51;56.74
3544;BME280;1786;52.870;9.578;2024-01-25T11:54:01;101674.28;;;15.24;56.78
3544;BME280;1786;52.870;9.578;2024-01-25T11:56:33;101684.84;;;15.53;56.10
3544;BME280;1786;52.870;9.578;2024-01-25T11:59:02;101678.94;;;15.35;55.61
3544;BME280;1786;52.870;9.578;2024-01-25T12:01:30;101685.41;;;15.98;54.67
3544;BME280;1786;52.870;9.578;2024-01-25T12:03:57;101686.41;;;15.70;55.42
3544;BME280;1786;52.870;9.578;2024-01-25T12:06:25;101684.69;;;15.42;55.65
3544;BME280;1786;52.870;9.578;2024-01-25T12:08:52;101680.47;;;16.05;55.24
3544;BME280;1786;52.870;9.578;2024-01-25T12:11:20;101685.16;;;15.75;55.31
3544;BME280;1786;52.870;9.578;2024-01-25T12:13:48;101687.53;;;15.26;55.88
3544;BME280;1786;52.870;9.578;2024-01-25T12:16:15;101688.50;;;15.25;55.89
3544;BME280;1786;52.870;9.578;2024-01-25T12:18:43;101684.44;;;15.32;56.49
3544;BME280;1786;52.870;9.578;2024-01-25T12:21:13;101686.50;;;14.73;57.36
3544;BME280;1786;52.870;9.578;2024-01-25T12:23:40;101687.06;;;15.19;57.29
3544;BME280;1786;52.870;9.578;2024-01-25T12:26:09;101678.66;;;14.57;57.67
3544;BME280;1786;52.870;9.578;2024-01-25T12:28:40;101683.19;;;14.55;58.48
3544;BME280;1786;52.870;9.578;2024-01-25T12:31:08;101676.44;;;14.78;58.28
3544;BME280;1786;52.870;9.578;2024-01-25T12:33:35;101689.34;;;15.52;56.88
3544;BME280;1786;52.870;9.578;2024-01-25T12:36:04;101688.47;;;15.92;55.79
3544;BME280;1786;52.870;9.578;2024-01-25T12:38:31;101679.00;;;16.13;55.53
3544;BME280;1786;52.870;9.578;2024-01-25T12:41:01;101677.47;;;15.71;54.85
3544;BME280;1786;52.870;9.578;2024-01-25T12:43:29;101677.72;;;15.93;54.95
3544;BME280;1786;52.870;9.578;2024-01-25T12:45:57;101665.72;;;15.33;55.70
3544;BME280;1786;52.870;9.578;2024-01-25T12:48:39;101667.53;;;15.33;55.51
3544;BME280;1786;52.870;9.578;2024-01-25T12:51:06;101672.56;;;15.10;55.93
3544;BME280;1786;52.870;9.578;2024-01-25T12:53:33;101670.19;;;14.64;57.52
3544;BME280;1786;52.870;9.578;2024-01-25T12:56:00;101672.09;;;15.31;56.25
3544;BME280;1786;52.870;9.578;2024-01-25T12:58:26;101675.72;;;15.30;55.78
3544;BME280;1786;52.870;9.578;2024-01-25T13:00:54;101679.66;;;15.64;55.71
3544;BME280;1786;52.870;9.578;2024-01-25T13:03:20;101676.66;;;16.09;53.96
3544;BME280;1786;52.870;9.578;2024-01-25T13:05:48;101676.88;;;15.93;54.15
3544;BME280;1786;52.870;9.578;2024-01-25T13:08:15;101672.84;;;15.60;54.62
3544;BME280;1786;52.870;9.578;2024-01-25T13:10:41;101674.06;;;15.82;54.65
3544;BME280;1786;52.870;9.578;2024-01-25T13:13:08;101672.50;;;15.65;54.97